Time;durP1;ratioP1;P1;durP2;ratioP2;P2;SDS_P1;SDS_P2;PMS_P1;PMS_P2;Temp;Humidity;BMP_temperature;BMP_pressure;BME280_temperature;BME280_humidity;BME280_pressure;Samples;Min_cycle;Max_cycle;Signal;HPM_P1;HPM_P2
2023/02/07 00:01:22;;;;;;;8.98;3.50;;;;;;;5.03;85.16;102871.81;5041170;28;20144;-45
2023/02/07 00:03:49;;;;;;;13.82;4.75;;;;;;;5.07;85.29;102870.25;5028580;28;20107;-44
2023/02/07 00:06:25;;;;;;;10.48;3.65;;;;;;;5.15;85.41;102869.78;5030455;28;20384;-45
2023/02/07 00:08:53;;;;;;;8.15;3.67;;;;;;;5.19;85.34;102862.69;5031162;28;20403;-46
2023/02/07 00:11:21;;;;;;;9.65;2.72;;;;;;;5.23;85.47;102857.50;5030086;28;20048;-44
2023/02/07 00:13:51;;;;;;;11.95;3.20;;;;;;;5.26;85.31;102863.31;5029640;28;20119;-44
2023/02/07 00:16:19;;;;;;;9.40;3.42;;;;;;;5.29;85.50;102861.97;5025372;28;20080;-44
2023/02/07 00:18:46;;;;;;;11.88;4.18;;;;;;;5.32;85.50;102859.53;5021527;28;20379;-44
2023/02/07 00:21:16;;;;;;;9.98;2.50;;;;;;;5.35;85.58;102872.75;5025647;28;20140;-44
2023/02/07 00:23:44;;;;;;;9.30;2.35;;;;;;;5.39;85.50;102862.09;5027991;28;20144;-44
2023/02/07 00:26:13;;;;;;;9.63;1.98;;;;;;;5.44;85.61;102876.69;5012228;28;20072;-46
2023/02/07 00:28:40;;;;;;;10.82;2.38;;;;;;;5.48;85.45;102872.34;5030398;28;20053;-44
2023/02/07 00:31:11;;;;;;;14.75;3.22;;;;;;;5.53;85.66;102863.34;5030114;28;20054;-44
2023/02/07 00:33:40;;;;;;;7.10;2.00;;;;;;;5.59;85.66;102864.22;5030124;28;20045;-44
2023/02/07 00:36:10;;;;;;;6.88;2.28;;;;;;;5.63;85.69;102854.34;5022970;28;20053;-44
2023/02/07 00:38:38;;;;;;;9.45;3.20;;;;;;;5.66;85.60;102859.31;5025421;28;20072;-47
2023/02/07 00:41:05;;;;;;;13.82;2.10;;;;;;;5.69;85.76;102853.31;5030003;28;20073;-44
2023/02/07 00:43:33;;;;;;;8.95;2.05;;;;;;;5.70;85.83;102852.19;5030222;28;20168;-44
2023/02/07 00:46:02;;;;;;;11.65;2.60;;;;;;;5.74;85.66;102853.34;5039038;28;20051;-44
2023/02/07 00:48:30;;;;;;;11.38;5.30;;;;;;;5.75;85.93;102861.31;5029534;28;20044;-44
2023/02/07 00:50:57;;;;;;;12.70;3.42;;;;;;;5.76;86.07;102859.41;5029941;28;20777;-44
2023/02/07 00:53:25;;;;;;;8.77;1.95;;;;;;;5.76;85.87;102853.91;5029072;28;20475;-44
2023/02/07 00:55:52;;;;;;;14.10;3.40;;;;;;;5.77;86.00;102863.81;5025244;28;20041;-44
2023/02/07 00:58:20;;;;;;;9.05;3.10;;;;;;;5.76;86.01;102865.75;5023436;28;20065;-52
2023/02/07 01:00:47;;;;;;;6.85;2.17;;;;;;;5.79;85.88;102864.38;5019965;28;20049;-44
2023/02/07 01:03:14;;;;;;;9.50;2.00;;;;;;;5.79;86.30;102856.97;5046895;28;20041;-44
2023/02/07 01:05:42;;;;;;;9.25;2.40;;;;;;;5.80;86.19;102853.13;5054608;28;20060;-45
2023/02/07 01:08:08;;;;;;;12.68;3.13;;;;;;;5.81;86.19;102856.72;5031933;28;20052;-44
2023/02/07 01:10:38;;;;;;;12.93;3.13;;;;;;;5.80;86.41;102861.38;5049783;28;20746;-44
2023/02/07 01:13:05;;;;;;;9.50;2.55;;;;;;;5.78;86.39;102858.06;5036868;28;20044;-44
2023/02/07 01:15:37;;;;;;;9.30;2.40;;;;;;;5.79;86.42;102853.41;5049615;28;20102;-48
2023/02/07 01:18:06;;;;;;;7.18;2.47;;;;;;;5.79;86.44;102856.97;5054050;28;20056;-44
2023/02/07 01:20:33;;;;;;;8.10;2.92;;;;;;;5.79;86.76;102869.88;5053634;28;20080;-45
2023/02/07 01:23:00;;;;;;;9.48;2.17;;;;;;;5.77;86.62;102867.38;5049498;28;20048;-50
2023/02/07 01:25:27;;;;;;;12.13;2.33;;;;;;;5.77;86.94;102858.34;5049045;28;20477;-44
2023/02/07 01:27:54;;;;;;;7.32;2.13;;;;;;;5.78;86.96;102859.97;5048681;28;20061;-45
2023/02/07 01:30:21;;;;;;;6.35;1.80;;;;;;;5.78;87.07;102859.97;5031124;28;20048;-44
2023/02/07 01:32:48;;;;;;;6.30;2.25;;;;;;;5.78;86.98;102851.72;5049527;28;20064;-44
2023/02/07 01:35:15;;;;;;;10.40;2.53;;;;;;;5.78;86.86;102851.72;5044392;28;20049;-45
2023/02/07 01:37:41;;;;;;;10.13;3.25;;;;;;;5.80;87.07;102857.81;5047042;28;20115;-44
2023/02/07 01:40:10;;;;;;;8.77;2.00;;;;;;;5.82;87.23;102858.38;5044990;28;20049;-44
2023/02/07 01:42:38;;;;;;;9.50;2.38;;;;;;;5.84;87.05;102853.44;5046090;28;20053;-44
2023/02/07 01:45:17;;;;;;;15.05;3.63;;;;;;;5.86;87.03;102863.09;5029318;28;20060;-48
2023/02/07 01:47:44;;;;;;;9.65;2.47;;;;;;;5.86;87.12;102857.63;5045873;28;20037;-44
2023/02/07 01:50:11;;;;;;;12.43;3.00;;;;;;;5.85;87.32;102861.44;5044325;28;20052;-45
2023/02/07 01:52:40;;;;;;;17.42;2.95;;;;;;;5.86;87.16;102862.28;5047038;28;20529;-44
2023/02/07 01:55:14;;;;;;;3.72;1.80;;;;;;;5.86;87.17;102859.53;5035627;28;20060;-47
2023/02/07 01:57:42;;;;;;;11.73;2.47;;;;;;;5.86;87.60;102865.84;5042382;28;20045;-44
2023/02/07 02:00:12;;;;;;;9.15;2.13;;;;;;;5.87;87.55;102869.44;5038341;28;20060;-46
2023/02/07 02:02:39;;;;;;;14.15;2.90;;;;;;;5.86;87.56;102870.53;5052629;28;20135;-45
2023/02/07 02:05:07;;;;;;;8.60;2.20;;;;;;;5.85;87.60;102871.63;5048529;28;20406;-44
2023/02/07 02:07:36;;;;;;;12.30;2.95;;;;;;;5.83;87.33;102874.59;5042497;28;20079;-44
2023/02/07 02:10:11;;;;;;;18.08;3.30;;;;;;;5.83;87.63;102868.25;5048315;28;20426;-46
2023/02/07 02:12:50;;;;;;;14.63;3.47;;;;;;;5.81;87.58;102864.94;5045344;28;20051;-48
2023/02/07 02:16:01;;;;;;;12.60;2.80;;;;;;;5.81;87.83;102870.44;5048522;28;20051;-46
2023/02/07 02:18:42;;;;;;;9.93;2.80;;;;;;;5.80;87.77;102874.31;4996035;28;20478;-44
2023/02/07 02:21:20;;;;;;;7.65;3.50;;;;;;;5.79;87.88;102872.63;4986917;28;20529;-46
2023/02/07 02:24:18;;;;;;;16.70;3.17;;;;;;;5.78;88.06;102870.97;5029091;28;20052;-44
2023/02/07 02:27:05;;;;;;;10.82;2.95;;;;;;;5.77;88.18;102874.81;5048344;28;20068;-44
2023/02/07 02:29:59;;;;;;;11.57;2.95;;;;;;;5.77;88.05;102872.06;5037858;28;20045;-44
2023/02/07 02:32:59;;;;;;;11.88;2.65;;;;;;;5.78;88.30;102876.47;5047758;28;20045;-44
2023/02/07 02:35:36;;;;;;;12.50;5.38;;;;;;;5.77;88.13;102874.81;5046053;28;20048;-44
2023/02/07 02:38:17;;;;;;;18.15;3.58;;;;;;;5.77;88.19;102866.56;5048163;28;20048;-44
2023/02/07 02:41:02;;;;;;;9.55;2.60;;;;;;;5.80;88.26;102866.06;5048006;28;20037;-45
2023/02/07 02:43:37;;;;;;;9.40;2.45;;;;;;;5.80;88.51;102869.63;5047998;28;20067;-44
2023/02/07 02:46:16;;;;;;;18.73;3.83;;;;;;;5.81;88.42;102868.53;5048294;28;20084;-44
2023/02/07 02:48:43;;;;;;;14.15;3.55;;;;;;;5.82;88.40;102883.13;5035283;28;20587;-44
2023/02/07 02:51:10;;;;;;;11.45;2.50;;;;;;;5.82;88.65;102886.69;5047932;28;20052;-44
2023/02/07 02:53:37;;;;;;;10.85;1.90;;;;;;;5.81;88.66;102876.78;5046792;28;20052;-47
2023/02/07 02:56:40;;;;;;;9.18;2.83;;;;;;;5.82;88.78;102880.38;5048999;28;20049;-44
2023/02/07 02:59:29;;;;;;;13.48;2.13;;;;;;;5.82;88.68;102881.19;5043791;28;20492;-45
2023/02/07 03:02:11;;;;;;;8.18;2.58;;;;;;;5.82;88.78;102875.69;5086601;22;20139;-43
2023/02/07 03:04:43;;;;;;;8.77;2.55;;;;;;;5.82;88.83;102886.69;5064305;28;20028;-43
2023/02/07 03:07:10;;;;;;;;;;;;;;;5.81;88.77;102884.19;5061755;28;20048;-44
2023/02/07 03:10:11;;;;;;;12.30;3.15;;;;;;;5.78;88.82;102881.97;5067748;28;19927;-43
2023/02/07 03:12:42;;;;;;;8.50;2.35;;;;;;;5.79;88.62;102872.63;5064594;28;20056;-42
2023/02/07 03:15:31;;;;;;;8.85;2.25;;;;;;;5.79;89.08;102872.63;5069353;28;20471;-43
2023/02/07 03:18:17;;;;;;;9.32;2.35;;;;;;;5.79;88.96;102872.63;5058197;28;20516;-43
2023/02/07 03:20:48;;;;;;;6.28;2.30;;;;;;;5.78;89.10;102871.81;5071460;28;20040;-45
2023/02/07 03:23:18;;;;;;;11.35;3.50;;;;;;;5.78;88.98;102887.47;5071579;28;20070;-44
2023/02/07 03:25:47;;;;;;;13.68;3.83;;;;;;;5.78;89.03;102880.03;5071419;28;20045;-44
2023/02/07 03:28:17;;;;;;;16.77;2.42;;;;;;;5.78;89.10;102871.81;5071567;28;20055;-43
2023/02/07 03:30:47;;;;;;;9.00;2.08;;;;;;;5.79;89.30;102878.97;5071207;28;20383;-44
2023/02/07 03:33:16;;;;;;;11.90;2.33;;;;;;;5.80;89.17;102874.31;5071713;28;20044;-44
2023/02/07 03:35:54;;;;;;;13.10;3.15;;;;;;;5.82;89.45;102869.38;5071425;28;20036;-44
2023/02/07 03:38:21;;;;;;;8.07;2.45;;;;;;;5.84;89.42;102875.44;5069528;28;20040;-44
2023/02/07 03:40:55;;;;;;;13.60;2.60;;;;;;;5.86;89.44;102878.75;5066806;28;20048;-43
2023/02/07 03:43:27;;;;;;;6.53;1.80;;;;;;;5.89;89.21;102872.75;5065715;28;20055;-44
2023/02/07 03:45:54;;;;;;;15.77;2.65;;;;;;;5.90;89.39;102868.91;5063777;28;20051;-44
2023/02/07 03:48:22;;;;;;;17.80;4.43;;;;;;;5.89;89.42;102868.09;5068912;28;20140;-45
2023/02/07 03:50:51;;;;;;;9.48;2.25;;;;;;;5.89;89.21;102870.00;5066747;28;20033;-51
2023/02/07 03:53:19;;;;;;;9.93;2.17;;;;;;;5.88;89.29;102873.81;5066709;28;20406;-43
2023/02/07 03:55:46;;;;;;;9.45;2.13;;;;;;;5.87;89.35;102864.78;5064704;28;20102;-44
2023/02/07 03:58:13;;;;;;;16.42;2.33;;;;;;;5.88;89.43;102865.59;5067499;28;20044;-44
2023/02/07 04:00:40;;;;;;;8.88;3.08;;;;;;;5.85;89.60;102861.44;5060916;28;20040;-44
2023/02/07 04:03:06;;;;;;;7.05;2.25;;;;;;;5.85;89.48;102866.94;5087743;28;20051;-44
2023/02/07 04:05:33;;;;;;;6.55;2.45;;;;;;;5.83;89.72;102860.84;5088672;28;20055;-43
2023/02/07 04:08:00;;;;;;;11.27;2.65;;;;;;;5.83;89.52;102862.75;5082073;28;20045;-43
2023/02/07 04:10:27;;;;;;;9.05;2.08;;;;;;;5.81;89.85;102852.03;5082415;28;20467;-44
2023/02/07 04:12:53;;;;;;;6.50;1.92;;;;;;;5.79;89.74;102854.22;5087461;28;20058;-46
2023/02/07 04:15:20;;;;;;;11.68;2.15;;;;;;;5.79;89.82;102862.47;5086907;28;20055;-47
2023/02/07 04:17:47;;;;;;;25.85;4.75;;;;;;;5.78;89.87;102854.47;5086749;28;20122;-47
2023/02/07 04:20:15;;;;;;;9.25;2.75;;;;;;;5.77;89.69;102853.63;5087829;28;20060;-44
2023/02/07 04:22:42;;;;;;;10.15;2.60;;;;;;;5.75;89.91;102857.75;5081195;28;20036;-45
2023/02/07 04:25:08;;;;;;;12.77;2.67;;;;;;;5.75;90.09;102855.00;5086746;28;20055;-44
2023/02/07 04:27:35;;;;;;;8.82;1.90;;;;;;;5.72;90.05;102850.84;5087764;28;20123;-43
2023/02/07 04:30:03;;;;;;;8.10;1.98;;;;;;;5.70;89.70;102857.69;5090106;28;20040;-47
2023/02/07 04:32:30;;;;;;;7.53;2.15;;;;;;;5.67;90.10;102859.06;5089841;28;20101;-44
2023/02/07 04:34:57;;;;;;;11.38;2.28;;;;;;;5.66;90.13;102853.84;5092227;28;20471;-43
2023/02/07 04:37:23;;;;;;;7.70;2.30;;;;;;;5.64;89.83;102850.53;5090436;28;20074;-49
2023/02/07 04:39:50;;;;;;;11.30;2.88;;;;;;;5.63;90.06;102854.34;5090483;28;20150;-43
2023/02/07 04:42:17;;;;;;;12.25;2.75;;;;;;;5.61;90.02;102853.78;5090575;28;20046;-44
2023/02/07 04:44:43;;;;;;;6.97;2.00;;;;;;;5.62;90.08;102859.00;5089890;28;20075;-45
2023/02/07 04:47:10;;;;;;;11.20;1.90;;;;;;;5.63;90.09;102857.09;5089766;28;20052;-50
2023/02/07 04:49:37;;;;;;;13.10;2.28;;;;;;;5.62;90.08;102860.91;5090219;28;20032;-43
2023/02/07 04:52:03;;;;;;;6.45;2.25;;;;;;;5.62;89.90;102860.91;5088784;28;20778;-46
2023/02/07 04:54:30;;;;;;;13.95;2.50;;;;;;;5.62;89.98;102859.00;5090385;28;20048;-46
2023/02/07 04:56:57;;;;;;;10.75;2.65;;;;;;;5.61;90.37;102871.09;5090346;28;20075;-45
2023/02/07 04:59:23;;;;;;;18.63;3.05;;;;;;;5.63;90.16;102857.94;5088524;28;20043;-43
2023/02/07 05:01:50;;;;;;;9.70;1.90;;;;;;;5.63;90.53;102863.44;5077409;28;20105;-43
2023/02/07 05:04:17;;;;;;;10.57;2.53;;;;;;;5.64;90.21;102856.81;5068522;28;20123;-43
2023/02/07 05:06:44;;;;;;;10.15;2.47;;;;;;;5.65;90.15;102865.91;5050082;28;20052;-43
2023/02/07 05:09:10;;;;;;;15.93;2.33;;;;;;;5.64;90.18;102869.75;5049395;28;20044;-44
2023/02/07 05:11:37;;;;;;;13.30;3.60;;;;;;;5.62;90.37;102863.66;5062419;28;20604;-44
2023/02/07 05:14:04;;;;;;;10.02;2.92;;;;;;;5.59;90.22;102867.78;5069286;28;20048;-44
2023/02/07 05:16:31;;;;;;;7.47;2.17;;;;;;;5.58;90.19;102879.03;5069190;28;20482;-43
2023/02/07 05:18:57;;;;;;;15.73;2.88;;;;;;;5.53;90.33;102883.38;5068580;28;20045;-44
2023/02/07 05:21:24;;;;;;;14.38;2.67;;;;;;;5.48;90.44;102882.53;5064024;28;20401;-43
2023/02/07 05:23:51;;;;;;;14.88;2.65;;;;;;;5.44;90.58;102886.84;5068130;28;20060;-44
2023/02/07 05:26:17;;;;;;;12.52;2.70;;;;;;;5.45;90.66;102885.78;5061375;28;20047;-43
2023/02/07 05:28:44;;;;;;;13.68;2.28;;;;;;;5.43;90.47;102886.03;5068962;28;20054;-46
2023/02/07 05:31:11;;;;;;;8.93;1.85;;;;;;;5.44;90.86;102881.38;5071532;28;20044;-43
2023/02/07 05:33:38;;;;;;;6.35;2.08;;;;;;;5.44;90.77;102876.69;5068306;28;20068;-44
2023/02/07 05:36:05;;;;;;;7.93;3.28;;;;;;;5.46;90.76;102882.75;5066339;28;20493;-44
2023/02/07 05:38:32;;;;;;;13.77;3.17;;;;;;;5.47;90.70;102881.69;5065606;28;20051;-46
2023/02/07 05:41:00;;;;;;;5.80;2.08;;;;;;;5.51;90.63;102879.22;5066554;28;20083;-43
2023/02/07 05:43:26;;;;;;;14.27;2.42;;;;;;;5.55;90.70;102880.38;5060964;28;20055;-50
2023/02/07 05:45:53;;;;;;;8.18;2.58;;;;;;;5.58;90.59;102874.38;5066431;28;20041;-43
2023/02/07 05:48:20;;;;;;;7.20;2.08;;;;;;;5.62;90.76;102878.25;5066192;28;20131;-44
2023/02/07 05:50:46;;;;;;;19.38;3.13;;;;;;;5.64;90.60;102869.75;5060793;28;20040;-43
2023/02/07 05:53:13;;;;;;;10.60;2.97;;;;;;;5.70;90.73;102874.19;5065590;28;20560;-43
2023/02/07 05:55:40;;;;;;;12.00;2.45;;;;;;;5.75;90.75;102887.97;5063883;28;20052;-43
2023/02/07 05:58:07;;;;;;;10.38;1.70;;;;;;;5.81;90.77;102878.69;5065684;28;20080;-44
2023/02/07 06:00:34;;;;;;;11.27;2.35;;;;;;;5.84;90.53;102875.44;5064018;28;20048;-48
2023/02/07 06:03:00;;;;;;;6.10;1.75;;;;;;;5.90;90.57;102879.91;5064269;28;20048;-44
2023/02/07 06:05:30;;;;;;;8.00;2.28;;;;;;;5.94;90.50;102886.53;5063639;28;20037;-43
2023/02/07 06:07:58;;;;;;;5.35;2.25;;;;;;;5.98;90.54;102882.19;5061200;28;20032;-43
2023/02/07 06:10:25;;;;;;;8.35;2.53;;;;;;;6.04;90.73;102881.13;5071385;28;20523;-47
2023/02/07 06:12:51;;;;;;;7.32;1.83;;;;;;;6.06;90.56;102879.75;5052255;28;20115;-44
2023/02/07 06:15:18;;;;;;;8.85;2.17;;;;;;;6.10;90.80;102869.06;5068597;28;20153;-44
2023/02/07 06:17:45;;;;;;;7.43;1.90;;;;;;;6.12;90.53;102877.88;5068498;28;20119;-46
2023/02/07 06:20:12;;;;;;;7.07;1.98;;;;;;;6.14;90.75;102875.72;5068056;28;20491;-43
2023/02/07 06:22:39;;;;;;;5.22;2.65;;;;;;;6.19;90.68;102883.16;5068887;28;20058;-44
2023/02/07 06:25:10;;;;;;;6.20;2.35;;;;;;;6.21;90.91;102881.81;5068275;28;20079;-44
2023/02/07 06:27:40;;;;;;;10.70;2.00;;;;;;;6.25;90.72;102884.88;5055453;28;20051;-46
2023/02/07 06:30:09;;;;;;;8.43;2.08;;;;;;;6.28;90.75;102887.91;5061015;28;20383;-43
2023/02/07 06:32:36;;;;;;;9.23;2.30;;;;;;;6.30;90.62;102893.97;5068510;28;20052;-43
2023/02/07 06:35:04;;;;;;;5.45;1.52;;;;;;;6.32;90.66;102878.03;5052883;28;20048;-43
2023/02/07 06:37:31;;;;;;;8.57;2.22;;;;;;;6.33;90.72;102882.44;5068188;28;20135;-44
2023/02/07 06:39:58;;;;;;;5.88;1.67;;;;;;;6.35;90.53;102883.03;5068549;28;20053;-44
2023/02/07 06:42:25;;;;;;;7.25;1.50;;;;;;;6.38;90.48;102882.47;5068663;28;20049;-43
2023/02/07 06:44:51;;;;;;;11.20;1.85;;;;;;;6.41;90.73;102892.09;5068644;28;20053;-50
2023/02/07 06:47:19;;;;;;;9.32;1.65;;;;;;;6.43;90.50;102885.28;5071298;28;20147;-43
2023/02/07 06:49:46;;;;;;;10.32;2.97;;;;;;;6.45;90.39;102880.31;5067035;28;20040;-43
2023/02/07 06:52:13;;;;;;;11.25;2.08;;;;;;;6.47;90.66;102885.56;5064468;28;20053;-44
2023/02/07 06:54:40;;;;;;;9.80;2.63;;;;;;;6.49;90.37;102888.84;5048324;28;20055;-45
2023/02/07 06:57:07;;;;;;;11.82;3.63;;;;;;;6.49;90.36;102888.84;5073089;28;20558;-43
2023/02/07 06:59:34;;;;;;;18.65;2.75;;;;;;;6.49;90.45;102884.19;5063745;28;20050;-47
2023/02/07 07:02:02;;;;;;;8.77;1.73;;;;;;;6.49;90.47;102884.19;5053588;28;20052;-43
2023/02/07 07:04:29;;;;;;;8.93;1.88;;;;;;;6.48;90.42;102885.31;5068461;28;20040;-44
2023/02/07 07:06:56;;;;;;;9.73;1.90;;;;;;;6.49;90.54;102892.44;5066134;28;20045;-43
2023/02/07 07:09:23;;;;;;;9.82;2.53;;;;;;;6.50;90.46;102885.03;5068498;28;20040;-43
2023/02/07 07:11:50;;;;;;;16.15;3.08;;;;;;;6.50;90.25;102891.38;5070932;28;20064;-44
2023/02/07 07:14:17;;;;;;;9.52;2.22;;;;;;;6.50;90.39;102879.53;5050089;28;20135;-49
2023/02/07 07:16:43;;;;;;;11.05;1.98;;;;;;;6.50;90.67;102896.88;5067027;28;20143;-44
2023/02/07 07:19:11;;;;;;;9.55;2.33;;;;;;;6.51;90.61;102890.25;5050342;28;20036;-43
2023/02/07 07:21:38;;;;;;;7.00;1.98;;;;;;;6.50;90.75;102888.63;5069296;28;20488;-45
2023/02/07 07:24:05;;;;;;;17.58;3.55;;;;;;;6.51;90.43;102892.19;5067549;28;20577;-44
2023/02/07 07:26:32;;;;;;;12.85;2.53;;;;;;;6.50;90.75;102896.88;5067346;28;20130;-43
2023/02/07 07:29:14;;;;;;;11.18;2.47;;;;;;;6.51;90.70;102897.69;5069095;28;20452;-45
2023/02/07 07:31:41;;;;;;;11.18;3.20;;;;;;;6.50;90.58;102891.38;5063874;28;20044;-49
2023/02/07 07:34:08;;;;;;;17.95;3.40;;;;;;;6.49;90.47;102894.38;5063703;28;20041;-43
2023/02/07 07:36:35;;;;;;;13.48;4.90;;;;;;;6.49;90.72;102900.69;5058056;28;20087;-44
2023/02/07 07:39:03;;;;;;;15.27;6.50;;;;;;;6.48;90.62;102903.72;5041828;28;20056;-44
2023/02/07 07:41:30;;;;;;;18.88;5.70;;;;;;;6.47;90.67;102902.91;5052530;28;20450;-44
2023/02/07 07:43:57;;;;;;;10.73;2.40;;;;;;;6.45;90.68;102902.34;5071052;28;20066;-44
2023/02/07 07:46:24;;;;;;;6.63;2.50;;;;;;;6.44;90.86;102903.41;5070860;28;20156;-45
2023/02/07 07:48:51;;;;;;;12.43;5.13;;;;;;;6.41;90.76;102909.44;5044306;28;20055;-43
2023/02/07 07:51:18;;;;;;;8.50;2.58;;;;;;;6.40;90.67;102910.56;5061113;28;20059;-43
2023/02/07 07:53:45;;;;;;;6.85;2.47;;;;;;;6.39;90.87;102917.16;5051116;28;20529;-44
2023/02/07 07:56:12;;;;;;;8.23;2.30;;;;;;;6.37;90.80;102913.00;5057763;28;20602;-44
2023/02/07 07:58:39;;;;;;;9.05;2.35;;;;;;;6.30;90.57;102913.22;5064906;28;20032;-45
2023/02/07 08:01:05;;;;;;;7.13;2.30;;;;;;;6.27;90.90;102924.78;5069626;28;20086;-45
2023/02/07 08:03:32;;;;;;;17.08;3.03;;;;;;;6.22;91.06;102918.41;5069627;28;20055;-44
2023/02/07 08:05:59;;;;;;;10.82;2.65;;;;;;;6.17;90.87;102918.38;5072639;28;20097;-43
2023/02/07 08:08:26;;;;;;;16.05;4.80;;;;;;;6.12;91.01;102927.38;5082443;28;20044;-44
2023/02/07 08:10:53;;;;;;;7.88;2.75;;;;;;;6.07;90.91;102919.09;5086726;28;20131;-52
2023/02/07 08:13:20;;;;;;;8.20;2.40;;;;;;;6.04;90.91;102933.34;5086086;28;20135;-43
2023/02/07 08:15:47;;;;;;;13.68;2.83;;;;;;;6.00;90.88;102924.81;5090220;28;20615;-43
2023/02/07 08:18:14;;;;;;;6.18;3.00;;;;;;;5.97;91.09;102930.00;5090576;28;20490;-44
2023/02/07 08:20:40;;;;;;;9.90;2.85;;;;;;;5.95;91.18;102926.69;5091695;28;20406;-43
2023/02/07 08:23:07;;;;;;;9.35;2.67;;;;;;;5.93;90.92;102940.69;5090927;28;20040;-44
2023/02/07 08:25:34;;;;;;;9.82;2.92;;;;;;;5.93;91.28;102939.88;5090478;28;20416;-44
2023/02/07 08:28:01;;;;;;;9.90;3.13;;;;;;;5.90;91.18;102940.41;5090536;28;20086;-49
2023/02/07 08:30:30;;;;;;;8.43;2.60;;;;;;;5.90;91.28;102948.66;5090219;28;20040;-51
2023/02/07 08:32:57;;;;;;;10.43;3.10;;;;;;;5.91;91.29;102945.63;5090454;28;20036;-43
2023/02/07 08:35:25;;;;;;;7.55;2.63;;;;;;;5.94;91.40;102949.78;5090100;28;20047;-48
2023/02/07 08:37:54;;;;;;;6.80;2.42;;;;;;;5.97;91.28;102952.00;5090821;28;20381;-44
2023/02/07 08:40:21;;;;;;;9.75;3.65;;;;;;;6.02;91.23;102943.78;5090110;28;20154;-44
2023/02/07 08:42:48;;;;;;;6.72;2.83;;;;;;;6.06;91.42;102945.75;5090326;28;20032;-44
2023/02/07 08:45:16;;;;;;;10.45;3.15;;;;;;;6.13;91.34;102949.13;5090048;28;20152;-52
2023/02/07 08:47:44;;;;;;;12.43;3.38;;;;;;;6.18;91.38;102964.84;5095374;28;20397;-48
2023/02/07 08:50:12;;;;;;;10.80;2.83;;;;;;;6.23;91.24;102956.63;5089885;28;20405;-45
2023/02/07 08:52:40;;;;;;;7.75;2.55;;;;;;;6.27;91.41;102952.28;5088319;28;20485;-44
2023/02/07 08:55:07;;;;;;;12.00;3.70;;;;;;;6.30;91.42;102940.72;5090546;28;20044;-44
2023/02/07 08:57:34;;;;;;;10.90;4.57;;;;;;;6.32;91.08;102944.06;5090210;28;20443;-44
2023/02/07 09:00:02;;;;;;;12.23;3.70;;;;;;;6.34;91.20;102943.78;5089847;28;20397;-44
2023/02/07 09:02:29;;;;;;;7.95;3.28;;;;;;;6.39;91.50;102961.16;5089442;28;20052;-46
2023/02/07 09:04:56;;;;;;;10.57;3.22;;;;;;;6.43;91.48;102951.31;5089547;28;20039;-44
2023/02/07 09:07:23;;;;;;;10.73;3.13;;;;;;;6.45;91.39;102960.13;5089729;28;20503;-44
2023/02/07 09:09:50;;;;;;;13.18;3.35;;;;;;;6.49;91.30;102955.72;5088422;28;20135;-46
2023/02/07 09:12:17;;;;;;;8.15;3.80;;;;;;;6.52;91.37;102957.97;5094148;28;20493;-44
2023/02/07 09:14:43;;;;;;;15.65;4.63;;;;;;;6.55;91.44;102954.69;5089283;28;20074;-45
2023/02/07 09:17:10;;;;;;;16.75;4.57;;;;;;;6.59;91.54;102958.56;5089537;28;20079;-44
2023/02/07 09:19:37;;;;;;;7.32;3.40;;;;;;;6.63;91.50;102956.94;5089264;28;20067;-44
2023/02/07 09:22:04;;;;;;;13.50;3.88;;;;;;;6.67;91.40;102962.75;5070983;28;20625;-44
2023/02/07 09:24:31;;;;;;;14.27;3.28;;;;;;;6.70;91.43;102952.03;5089393;28;20040;-49
2023/02/07 09:26:58;;;;;;;7.95;3.10;;;;;;;6.76;91.35;102958.41;5089518;28;20052;-46
2023/02/07 09:29:25;;;;;;;12.38;4.70;;;;;;;6.81;91.43;102960.34;5071576;28;20054;-44
2023/02/07 09:31:51;;;;;;;12.07;3.25;;;;;;;6.86;91.43;102960.41;5089294;28;20089;-44
2023/02/07 09:34:18;;;;;;;15.60;4.45;;;;;;;6.91;91.23;102957.69;5090580;28;20152;-49
2023/02/07 09:36:45;;;;;;;14.40;4.38;;;;;;;6.96;91.34;102965.97;5075649;28;20064;-44
2023/02/07 09:39:12;;;;;;;15.98;5.43;;;;;;;7.02;91.35;102970.38;5071130;28;20078;-46
2023/02/07 09:42:04;;;;;;;12.43;5.15;;;;;;;7.09;90.99;102969.06;5089177;28;20056;-44
2023/02/07 09:45:03;;;;;;;9.73;4.60;;;;;;;7.14;91.08;102973.75;5089754;28;20048;-44
2023/02/07 09:47:32;;;;;;;15.32;4.65;;;;;;;7.18;90.99;102983.97;5081989;28;20635;-44
2023/02/07 09:50:12;;;;;;;17.60;3.70;;;;;;;7.22;90.80;102981.53;5089071;28;20048;-44
2023/02/07 09:52:50;;;;;;;11.50;4.03;;;;;;;7.26;90.94;102985.38;5089094;28;20044;-49
2023/02/07 09:55:25;;;;;;;18.23;4.55;;;;;;;7.29;90.84;102995.88;5089528;28;20135;-45
2023/02/07 09:57:59;;;;;;;10.70;4.35;;;;;;;7.31;90.86;102990.91;5088768;28;20115;-45
2023/02/07 10:00:30;;;;;;;11.05;3.83;;;;;;;7.35;90.73;102997.56;5088921;28;20040;-48
2023/02/07 10:03:23;;;;;;;11.73;3.58;;;;;;;7.40;90.84;102988.47;5088926;28;20497;-44
2023/02/07 10:05:49;;;;;;;;;;;;;;;7.42;90.87;103003.66;5089228;28;20097;-44
2023/02/07 10:08:18;;;;;;;10.57;3.90;;;;;;;7.45;90.77;102989.31;5088520;28;20354;-45
2023/02/07 10:10:51;;;;;;;10.60;2.75;;;;;;;7.49;90.76;102982.19;5093024;28;20448;-45
2023/02/07 10:13:38;;;;;;;9.98;3.67;;;;;;;7.55;90.76;102991.28;5071010;28;20044;-44
2023/02/07 10:16:20;;;;;;;9.13;2.65;;;;;;;7.60;90.70;102999.59;5042342;28;20044;-44
2023/02/07 10:19:00;;;;;;;13.43;4.20;;;;;;;7.64;90.66;102987.75;5088837;28;20040;-44
2023/02/07 10:21:57;;;;;;;9.27;2.38;;;;;;;7.68;90.55;102991.59;5088969;28;20288;-44
2023/02/07 10:24:36;;;;;;;11.98;3.28;;;;;;;7.74;90.60;102995.22;5075539;28;20416;-44
2023/02/07 10:27:09;;;;;;;10.27;2.60;;;;;;;7.78;90.58;102999.91;5088180;28;20504;-44
2023/02/07 10:29:36;;;;;;;9.77;3.08;;;;;;;7.81;90.44;102996.59;5088769;28;20055;-45
2023/02/07 10:32:13;;;;;;;8.48;2.53;;;;;;;7.87;90.37;103002.97;5088516;28;20050;-44
2023/02/07 10:34:45;;;;;;;10.70;2.20;;;;;;;7.90;90.34;103008.78;5091107;28;20048;-44
2023/02/07 10:37:18;;;;;;;6.13;2.65;;;;;;;7.94;90.35;103001.59;5093989;28;20100;-50
2023/02/07 10:39:53;;;;;;;12.55;2.33;;;;;;;7.98;90.21;102996.38;5095299;28;20512;-44
2023/02/07 10:42:19;;;;;;;5.00;2.05;;;;;;;8.03;90.11;103003.81;5088635;28;20043;-44
2023/02/07 10:44:46;;;;;;;8.82;2.25;;;;;;;8.08;90.05;103001.06;5087841;28;20048;-47
2023/02/07 10:47:16;;;;;;;13.32;3.92;;;;;;;8.13;89.85;102990.06;5078066;28;20374;-45
2023/02/07 10:49:48;;;;;;;7.60;2.30;;;;;;;8.18;89.71;102995.59;5088584;28;20139;-44
2023/02/07 10:52:17;;;;;;;14.65;3.20;;;;;;;8.26;89.78;102998.59;5088230;28;20067;-44
2023/02/07 10:54:57;;;;;;;13.10;3.63;;;;;;;8.35;89.52;102996.16;5095419;28;20054;-44
2023/02/07 10:57:26;;;;;;;14.05;2.35;;;;;;;8.40;89.42;102994.25;5088818;28;20106;-44
2023/02/07 11:00:05;;;;;;;9.48;3.20;;;;;;;8.44;89.30;102989.84;5070468;28;20378;-44
2023/02/07 11:02:36;;;;;;;8.68;2.20;;;;;;;8.50;89.28;102994.22;5087802;28;20048;-44
2023/02/07 11:05:23;;;;;;;9.88;2.45;;;;;;;8.56;89.13;102987.63;5087992;28;20093;-44
2023/02/07 11:07:59;;;;;;;12.07;2.75;;;;;;;8.60;88.84;102990.66;5088195;28;20089;-45
2023/02/07 11:10:41;;;;;;;6.95;2.10;;;;;;;8.67;88.72;102988.44;5091608;28;20130;-45
2023/02/07 11:13:17;;;;;;;9.27;2.65;;;;;;;8.70;88.77;102987.88;5076131;28;20051;-45
2023/02/07 11:15:50;;;;;;;10.13;2.13;;;;;;;8.76;88.56;102981.25;5088543;28;20254;-45
2023/02/07 11:18:36;;;;;;;10.32;2.33;;;;;;;8.83;88.40;102992.00;5088681;28;20051;-43
2023/02/07 11:21:26;;;;;;;11.60;2.03;;;;;;;8.92;88.15;102987.56;5088547;28;20044;-44
2023/02/07 11:23:58;;;;;;;10.10;2.45;;;;;;;8.96;88.24;102983.97;5088180;28;20497;-46
2023/02/07 11:26:25;;;;;;;8.63;2.13;;;;;;;9.02;88.04;102985.63;5087954;28;20090;-44
2023/02/07 11:29:02;;;;;;;5.53;2.00;;;;;;;9.07;87.79;102982.00;5088261;28;20040;-44
2023/02/07 11:31:33;;;;;;;9.13;2.55;;;;;;;9.11;87.79;102985.84;5088174;28;20052;-47
2023/02/07 11:34:18;;;;;;;11.65;2.13;;;;;;;9.13;87.52;102981.69;5093603;28;20040;-44
2023/02/07 11:36:45;;;;;;;7.28;2.13;;;;;;;9.16;87.34;102985.81;5091230;28;20489;-44
2023/02/07 11:39:18;;;;;;;8.68;2.33;;;;;;;9.18;87.13;102981.69;5091825;28;20400;-46
2023/02/07 11:41:59;;;;;;;9.05;3.05;;;;;;;9.21;87.20;102988.59;5091248;28;20052;-44
2023/02/07 11:44:28;;;;;;;8.65;2.17;;;;;;;9.21;87.04;102987.78;5091367;28;20101;-43